SpazioLink.com il tuo mini portale

Terremoti in Italia, posizione geografica

Spaziolink il MiniPortale

Home Sfondi Screenmates SuperEnalotto Posizione navi Terremoti Calendario feste Barzellette Frasi utili Giochi Meteo Gifs Software Ricerca
Lista dei terremoti in Italia in tempo reale dopo l'elaborazione dei valori rilevati dai sensori dislocati nelle zone interessate, comprendenti gli eventi sismici di elevata magnitudo sull'intero globo, per visualizzare la posizione dell'epicentro su Google Maps cliccare sul nome del luogo evidenziato in blu.
DATA ORA MAG ≥ 2 ZONA REGIONE LAT LONG PROF km
21/05/2022 13:42:08 ML 2.4 Confine Grecia-Albania (GRECIA, ALBANIA) Mondo 39.62 19.87 36.9
21/05/2022 09:35:00 ML 2.0 6 km a est di Norcia (PG) Umbria 42.81 13.16 10.1
21/05/2022 09:01:34 Mwp 6.0 Greenland (Sea) Mondo 84.33 0.59 74.2
21/05/2022 07:58:36 ML 2.4 Golfo di Policastro (Salerno, Potenza) Mare 39.74 15.30 291.6
21/05/2022 02:09:48 ML 2.0 8 km nord-est Panettieri (CS) Calabria 39.12 16.51 10.1
20/05/2022 19:23:48 ML 2.2 Costa Agrigentina (Agrigento) Mare 36.85 13.89 14.2
20/05/2022 18:40:40 Md 2.1 Campi Flegrei Campania 40.81 14.10 4.0
20/05/2022 15:49:43 ML 2.7 Isole Eolie (Messina) Mare 38.54 15.15 160.6
20/05/2022 14:35:50 Mwp 5.6 Morocco (Sea) Mondo 35.50 -3.64 10.0
20/05/2022 11:47:13 ML 2.2 3 km a est di Barete (AQ) Abruzzo 42.47 13.32 13.5
20/05/2022 10:26:49 ML 2.1 4 km nord-est Palazzuolo sul Senio (FI) Toscana 44.14 11.58 9.0
20/05/2022 05:59:19 ML 3.3 2 km a est di Umbriatico (KR) Calabria 39.35 16.95 21.6
20/05/2022 04:37:35 ML 2.3 1 km a ovest di Sant`Angelo dei Lombardi (AV) Campania 40.93 15.17 11.9
20/05/2022 02:00:04 ML 2.4 4 km a nord-ovest di Milo (CT) Sicilia 37.75 15.08 5.1
20/05/2022 01:44:48 ML 2.1 3 km a est di Umbriatico (KR) Calabria 39.36 16.95 23.2
20/05/2022 01:26:38 ML 2.2 4 km a nord-ovest di Milo (CT) Sicilia 37.75 15.08 5.4
19/05/2022 23:49:54 ML 2.2 1 km a est di Umbriatico (KR) Calabria 39.35 16.93 21.0
19/05/2022 23:39:44 ML 2.0 2 km a est di Umbriatico (KR) Calabria 39.35 16.95 23.9
19/05/2022 23:38:12 ML 2.1 1 km a sud-est di Umbriatico (KR) Calabria 39.35 16.93 23.2
19/05/2022 23:28:12 ML 2.1 3 km a est di Umbriatico (KR) Calabria 39.35 16.95 24.6
19/05/2022 23:10:40 ML 2.2 3 km a est di Umbriatico (KR) Calabria 39.36 16.95 26.5
19/05/2022 23:06:53 ML 2.3 1 km a est di Umbriatico (KR) Calabria 39.36 16.93 21.2
19/05/2022 23:06:03 ML 2.2 2 km a sud-est di Umbriatico (KR) Calabria 39.34 16.93 20.2
19/05/2022 23:01:08 ML 3.2 3 km a est di Umbriatico (KR) Calabria 39.35 16.95 24.8
19/05/2022 19:00:23 ML 2.1 3 km a est di Umbriatico (KR) Calabria 39.36 16.95 25.6
19/05/2022 18:31:38 ML 2.0 1 km a sud-est di Umbriatico (KR) Calabria 39.35 16.93 24.1
19/05/2022 16:08:38 ML 2.0 3 km a sud-ovest di Castelnuovo Magra (SP) Liguria 44.08 10.01 7.9
19/05/2022 15:33:09 ML 2.3 3 km nord-est Monte Cavallo (MC) Marche 43.02 13.02 7.9
19/05/2022 15:31:48 ML 2.2 2 km a est di Umbriatico (KR) Calabria 39.36 16.94 24.2
19/05/2022 15:26:58 ML 2.1 1 km a est di Umbriatico (KR) Calabria 39.35 16.93 23.6
19/05/2022 12:13:35 Mwp 6.6 Australia (Sea) Mondo -53.95 158.98 10.2
19/05/2022 10:01:53 ML 2.1 1 km a sud-ovest di Umbriatico (KR) Calabria 39.35 16.91 22.0
19/05/2022 08:03:09 ML 2.0 2 km a est di Umbriatico (KR) Calabria 39.35 16.94 26.4
19/05/2022 02:07:15 ML 2.0 5 km a sud-ovest di Montelibretti (RM) Lazio 42.10 12.72 8.5
18/05/2022 20:01:34 ML 2.1 Tirreno Meridionale (MARE) Mare 38.41 15.33 129.8
18/05/2022 05:52:25 Mwp 6.0 Off east coast of Honshu, Japan (Sea: Japan) Mondo 33.19 141.64 10.2
18/05/2022 04:58:30 ML 2.7 2 km a sud-est di Sant`Elia a Pianisi (CB) Molise 41.60 14.89 25.3
18/05/2022 01:49:23 ML 3.7 1 km a ovest di Pietracatella (CB) Molise 41.58 14.86 22.2
17/05/2022 23:08:11 ML 2.9 Golfo di Salerno (Salerno) Mare 40.39 14.78 7.2
17/05/2022 21:59:27 ML 2.5 Costa Croata Settentrionale (CROAZIA) Mare 44.76 14.66 10.0
17/05/2022 10:51:22 ML 2.0 1 km a nord di Pietracatella (CB) Molise 41.59 14.87 22.6
17/05/2022 07:05:13 ML 2.4 1 km a sud di Poggio Rusco (MN) Lombardia 44.97 11.12 50.5
17/05/2022 05:35:18 ML 2.2 5 km a sud-est di Castelsantangelo sul Nera (MC) Marche 42.86 13.19 10.1
16/05/2022 23:25:30 ML 2.5 Isole Eolie (Messina) Mare 38.57 14.38 12.0
16/05/2022 20:58:24 Mwp 6.1 Southern Sumatera, Indonesia (Sea: Indonesia) Mondo -5.20 102.02 19.5
16/05/2022 17:36:46 ML 2.9 Costa Croata Settentrionale (CROAZIA) Mare 44.93 14.87 11.8
16/05/2022 12:55:18 ML 2.2 Costa Siciliana nord-orientale (Messina) Mare 38.27 14.80 132.4
16/05/2022 08:29:02 ML 2.1 3 km a sud di Vernasca (PC) Emilia Romagna 44.78 9.82 34.1
15/05/2022 17:25:27 ML 3.2 Costa Albanese settentrionale (ALBANIA) Mare 41.45 19.56 39.4
15/05/2022 16:47:21 ML 2.4 7 km a sud-ovest di Serra Sant`Abbondio (PU) Marche 43.44 12.74 10.2
15/05/2022 15:34:15 ML 2.2 Isole Eolie (Messina) Mare 38.50 14.38 11.7
15/05/2022 13:08:22 ML 3.2 Confine Grecia-Albania (GRECIA, ALBANIA) Mondo 39.97 20.63 11.5
15/05/2022 08:09:29 ML 2.3 Isole Eolie (Messina) Mare 38.51 14.39 11.7
15/05/2022 05:13:57 ML 2.1 1 km a est di Terme Vigliatore (ME) Sicilia 38.14 15.17 9.0
14/05/2022 21:42:23 ML 2.5 Mar Ionio Settentrionale (MARE) Mare 39.17 17.40 10.0
14/05/2022 21:39:52 ML 3.2 Costa Calabra sud-orientale (Reggio di Calabria) Mare 37.75 15.98 38.0
14/05/2022 20:55:53 ML 2.2 Costa Ionica Crotonese (Crotone) Mare 39.08 17.34 10.0
14/05/2022 19:49:40 ML 2.0 Costa Ionica Crotonese (Crotone) Mare 39.12 17.22 10.0
14/05/2022 16:25:24 ML 2.0 Isole Eolie (Messina) Mare 38.54 14.40 9.3
14/05/2022 13:57:16 ML 3.6 Isole Eolie (Messina) Mare 38.58 14.40 10.1
14/05/2022 12:40:11 ML 3.5 Lampedusa e Linosa (Agrigento) Mondo 35.62 12.89 10.2
14/05/2022 07:34:15 ML 3.4 Albania Mondo 40.54 19.73 18.5
14/05/2022 07:32:48 ML 2.0 1 km a nord di Cavriago (RE) Emilia Romagna 44.71 10.53 35.3
14/05/2022 06:27:36 ML 2.5 Costa Siciliana nord-orientale (Messina) Mare 38.37 15.43 116.9
14/05/2022 05:04:15 ML 2.1 Canale di Sicilia meridionale (MARE) Mare 36.22 14.10 30.5
Locations of visitors to this page (counting)
- subnet mask - partners - ipcheck - favicon - speedtest - canale youtube - programmone